createdAt,value
2019-02-15T00:03:21.375Z,48.00
2019-02-15T00:08:26.983Z,49.00
2019-02-15T00:13:30.898Z,50.00
2019-02-15T00:18:39.416Z,53.00
2019-02-15T00:23:49.475Z,53.11
2019-02-15T00:28:59.779Z,58.22
2019-02-15T00:34:11.486Z,58.40
2019-02-15T00:39:22.515Z,57.00
2019-02-15T00:44:32.003Z,57.33
2019-02-15T00:49:36.146Z,59.20
2019-02-15T00:54:44.619Z,59.90
2019-02-15T00:59:53.938Z,55.44
2019-02-15T01:05:04.866Z,60.21
2019-02-15T01:10:10.580Z,51.00
2019-02-15T01:15:19.166Z,50.63
2019-02-15T01:20:28.375Z,52.00
2019-02-15T01:25:36.507Z,52.00
2019-02-15T01:30:47.323Z,54.89
2019-02-15T01:35:56.648Z,53.22
2019-02-15T01:41:01.784Z,53.14
2019-02-15T01:46:08.633Z,52.00
2019-02-15T01:51:12.915Z,53.00
2019-02-15T01:56:22.072Z,49.89
2019-02-15T02:01:31.279Z,51.89
2019-02-15T02:06:37.295Z,51.75
2019-02-15T02:11:41.624Z,52.00
2019-02-15T02:16:51.875Z,51.56
2019-02-15T02:22:01.242Z,52.33
2019-02-15T02:27:09.875Z,53.78
2019-02-15T02:32:19.094Z,52.00
2019-02-15T02:37:29.287Z,50.89
2019-02-15T02:42:38.711Z,58.60
2019-02-15T02:47:49.663Z,50.42
2019-02-15T02:52:58.182Z,52.88
2019-02-15T02:58:03.183Z,52.43
2019-02-15T03:03:13.084Z,57.22
2019-02-15T03:08:16.222Z,52.00
2019-02-15T03:13:23.255Z,51.88
2019-02-15T03:18:27.423Z,49.33
2019-02-15T03:23:36.731Z,51.11
2019-02-15T03:28:41.659Z,49.57
2019-02-15T03:33:49.292Z,48.67
2019-02-15T03:38:55.336Z,50.00
2019-02-15T03:44:06.158Z,51.56
2019-02-15T03:49:11.271Z,50.00
2019-02-15T03:54:21.190Z,53.00
2019-02-15T03:59:31.143Z,51.88
2019-02-15T04:04:39.355Z,54.33
2019-02-15T04:09:47.610Z,55.22
2019-02-15T04:14:52.653Z,53.00
2019-02-15T04:19:59.354Z,52.00
2019-02-15T04:25:10.137Z,51.56
2019-02-15T04:30:14.342Z,58.80
2019-02-15T04:35:24.399Z,53.00
2019-02-15T04:40:29.432Z,58.00
2019-02-15T04:45:37.209Z,52.50
2019-02-15T04:50:48.122Z,56.44
2019-02-15T04:55:58.283Z,51.13
2019-02-15T05:01:02.426Z,52.17
2019-02-15T05:06:09.965Z,52.56
2019-02-15T05:11:16.935Z,55.67
2019-02-15T05:16:23.743Z,51.63
2019-02-15T05:21:30.713Z,50.75
2019-02-15T05:26:37.416Z,51.75
2019-02-15T05:31:42.524Z,52.71
2019-02-15T05:36:46.770Z,52.25
2019-02-15T05:41:50.920Z,54.67
2019-02-15T05:46:55.993Z,53.00
2019-02-15T05:52:01.063Z,53.25
2019-02-15T05:57:10.640Z,61.50
2019-02-15T06:02:20.025Z,51.78
2019-02-15T06:07:30.342Z,53.56
2019-02-15T06:12:39.860Z,55.56
2019-02-15T06:17:48.117Z,51.00
2019-02-15T06:22:52.170Z,51.25
2019-02-15T06:28:00.025Z,51.67
2019-02-15T06:33:05.068Z,57.57
2019-02-15T06:38:12.748Z,50.00
2019-02-15T06:43:16.371Z,56.00
2019-02-15T06:48:27.328Z,60.20
2019-02-15T06:53:31.625Z,55.00
2019-02-15T06:58:45.517Z,51.44
2019-02-15T07:03:48.106Z,52.38
2019-02-15T07:08:55.388Z,52.29
2019-02-15T07:13:59.400Z,52.00
2019-02-15T07:19:06.916Z,51.44
2019-02-15T07:24:11.880Z,48.50
2019-02-15T07:29:18.586Z,48.75
2019-02-15T07:34:27.699Z,51.00
2019-02-15T07:39:36.107Z,52.00
2019-02-15T07:44:39.475Z,55.00
2019-02-15T07:49:47.260Z,57.22
2019-02-15T07:54:58.335Z,52.00
2019-02-15T08:00:12.338Z,51.89
2019-02-15T08:05:20.259Z,51.67
2019-02-15T08:10:25.346Z,48.25
2019-02-15T08:15:36.482Z,46.44
2019-02-15T08:20:40.556Z,51.00
2019-02-15T08:25:48.881Z,49.63
2019-02-15T08:30:57.972Z,48.00
2019-02-15T08:36:06.230Z,48.22
2019-02-15T08:41:11.349Z,48.71
2019-02-15T08:46:20.526Z,47.78
2019-02-15T08:51:26.565Z,48.25
2019-02-15T08:56:35.994Z,50.33
2019-02-15T09:01:44.276Z,51.67
2019-02-15T09:06:54.358Z,48.89
2019-02-15T09:12:03.587Z,46.63
2019-02-15T09:17:12.822Z,46.75
2019-02-15T09:22:17.140Z,46.33
2019-02-15T09:27:26.392Z,43.22
2019-02-15T09:32:31.479Z,42.00
2019-02-15T09:37:39.732Z,46.50
2019-02-15T09:42:48.859Z,45.50
2019-02-15T09:47:53.083Z,44.00
2019-02-15T09:53:01.543Z,42.75
2019-02-15T09:58:08.181Z,44.00
2019-02-15T10:03:13.299Z,41.00
2019-02-15T10:08:20.848Z,38.00
2019-02-15T10:13:28.208Z,37.63
2019-02-15T10:18:37.079Z,33.00
2019-02-15T10:23:44.221Z,35.75
2019-02-15T10:28:49.934Z,40.40
2019-02-15T10:33:58.182Z,33.88
2019-02-15T10:39:05.602Z,37.63
2019-02-15T10:44:15.102Z,37.44
2019-02-15T10:49:25.030Z,26.44
2019-02-15T10:54:30.523Z,23.50
2019-02-15T10:59:34.547Z,31.50
2019-02-15T11:04:37.667Z,30.00
2019-02-15T11:09:44.008Z,26.37
2019-02-15T11:14:52.724Z,29.00
2019-02-15T11:19:59.923Z,32.13
2019-02-15T11:25:09.627Z,32.25
2019-02-15T11:30:17.231Z,34.63
2019-02-15T11:35:26.300Z,33.00
2019-02-15T11:40:34.524Z,34.67
2019-02-15T11:45:41.862Z,31.50
2019-02-15T11:50:50.974Z,33.25
2019-02-15T11:55:58.277Z,25.12
2019-02-15T12:01:03.194Z,33.00
2019-02-15T12:06:07.072Z,25.50
2019-02-15T12:11:15.359Z,30.50
2019-02-15T12:16:24.206Z,28.87
2019-02-15T12:21:31.662Z,33.00
2019-02-15T12:26:39.851Z,35.00
2019-02-15T12:31:44.611Z,32.00
2019-02-15T12:36:49.351Z,39.00
2019-02-15T12:41:58.248Z,31.37
2019-02-15T12:47:14.819Z,31.00
2019-02-15T12:52:18.423Z,30.00
2019-02-15T12:57:23.231Z,27.00
2019-02-15T13:02:31.592Z,28.38
2019-02-15T13:07:40.563Z,34.00
2019-02-15T13:12:49.672Z,30.00
2019-02-15T13:17:54.662Z,21.00
2019-02-15T13:23:03.187Z,28.12
2019-02-15T13:28:07.989Z,24.50
2019-02-15T13:33:16.370Z,21.87
2019-02-15T13:38:25.760Z,24.50
2019-02-15T13:43:30.591Z,23.50
2019-02-15T13:48:34.758Z,25.00
2019-02-15T13:53:38.860Z,27.50
2019-02-15T13:58:48.793Z,26.09
2019-02-15T14:03:57.355Z,22.71
2019-02-15T14:09:02.023Z,24.00
2019-02-15T14:14:07.906Z,27.62
2019-02-15T14:19:16.582Z,32.18
2019-02-15T14:24:23.372Z,33.56
2019-02-15T14:29:27.691Z,32.00
2019-02-15T14:34:31.652Z,35.00
2019-02-15T14:39:38.470Z,32.63
2019-02-15T14:44:43.487Z,36.00
2019-02-15T14:49:51.844Z,33.00
2019-02-15T14:55:00.940Z,31.25
2019-02-15T15:00:11.809Z,34.67
2019-02-15T15:05:16.694Z,35.00
2019-02-15T15:10:25.825Z,35.56
2019-02-15T15:15:33.961Z,33.11
2019-02-15T15:20:43.721Z,34.67
2019-02-15T15:25:51.723Z,33.00
2019-02-15T15:30:59.059Z,35.75
2019-02-15T15:36:03.420Z,32.50
2019-02-15T15:41:09.019Z,35.63
2019-02-15T15:46:13.120Z,35.00
2019-02-15T15:51:21.419Z,35.63
2019-02-15T15:56:28.987Z,41.00
2019-02-15T16:01:38.167Z,37.88
2019-02-15T16:06:47.293Z,39.75
2019-02-15T16:11:52.235Z,45.75
2019-02-15T16:17:00.638Z,42.38
2019-02-15T16:22:04.265Z,42.00
2019-02-15T16:27:13.038Z,47.62
2019-02-15T16:32:22.374Z,48.13
2019-02-15T16:37:29.299Z,44.67
2019-02-15T16:42:36.136Z,48.87
2019-02-15T16:47:40.730Z,45.50
2019-02-15T16:52:49.146Z,51.25
2019-02-15T16:57:57.301Z,53.89
2019-02-15T17:03:06.501Z,54.25
2019-02-15T17:08:11.674Z,53.00
2019-02-15T17:13:19.028Z,55.78
2019-02-15T17:18:29.132Z,52.11
2019-02-15T17:23:37.621Z,56.25
2019-02-15T17:28:45.913Z,52.22
2019-02-15T17:33:50.853Z,52.57
2019-02-15T17:38:57.780Z,50.12
2019-02-15T17:44:07.647Z,52.33
2019-02-15T17:49:16.664Z,50.75
2019-02-15T17:54:23.231Z,50.75
2019-02-15T17:59:32.462Z,50.88
2019-02-15T18:04:38.143Z,56.50
2019-02-15T18:09:44.915Z,52.50
2019-02-15T18:14:47.995Z,51.00
2019-02-15T18:19:55.370Z,52.44
2019-02-15T18:25:03.416Z,51.37
2019-02-15T18:30:11.335Z,50.63
2019-02-15T18:35:18.470Z,50.89
2019-02-15T18:40:21.984Z,97.00
2019-02-15T18:45:29.934Z,110.91
2019-02-15T18:50:41.118Z,67.50
2019-02-15T18:55:45.550Z,52.75
2019-02-15T19:00:49.810Z,51.50
2019-02-15T19:05:57.508Z,51.22
2019-02-15T19:11:05.035Z,56.78
2019-02-15T19:16:09.940Z,53.43
2019-02-15T19:21:18.359Z,53.70
2019-02-15T19:26:26.661Z,59.89
2019-02-15T19:31:31.608Z,59.71
2019-02-15T19:36:42.523Z,69.20
2019-02-15T19:41:50.272Z,53.22
2019-02-15T19:46:57.182Z,55.44
2019-02-15T19:52:01.443Z,51.33
2019-02-15T19:57:06.538Z,54.25
2019-02-15T20:02:11.064Z,52.00
2019-02-15T20:07:15.358Z,49.00
2019-02-15T20:12:24.613Z,61.00
2019-02-15T20:17:34.654Z,55.15
2019-02-15T20:22:39.636Z,57.86
2019-02-15T20:27:46.170Z,56.78
2019-02-15T20:32:57.689Z,53.20
2019-02-15T20:38:05.996Z,61.78
2019-02-15T20:43:09.302Z,57.00
2019-02-15T20:48:16.643Z,56.00
2019-02-15T20:53:26.560Z,51.89
2019-02-15T20:58:35.811Z,53.89
2019-02-15T21:03:44.653Z,64.78
2019-02-15T21:08:55.567Z,57.44
2019-02-15T21:14:06.362Z,61.00
2019-02-15T21:19:12.118Z,64.00
2019-02-15T21:24:19.818Z,56.33
2019-02-15T21:29:25.321Z,63.00
2019-02-15T21:34:28.909Z,68.40
2019-02-15T21:39:40.214Z,66.90
2019-02-15T21:44:50.486Z,78.20
2019-02-15T21:49:56.282Z,76.00
2019-02-15T21:55:08.362Z,71.22
2019-02-15T22:00:20.300Z,72.44
2019-02-15T22:05:25.400Z,75.43
2019-02-15T22:10:33.159Z,67.67
2019-02-15T22:15:43.659Z,70.78
2019-02-15T22:20:53.711Z,71.22
2019-02-15T22:25:58.890Z,69.00
2019-02-15T22:31:02.422Z,68.00
2019-02-15T22:36:10.110Z,76.56
2019-02-15T22:41:20.131Z,72.44
2019-02-15T22:46:30.284Z,78.33
2019-02-15T22:51:39.210Z,80.10
2019-02-15T22:56:44.218Z,73.50
2019-02-15T23:01:49.998Z,81.50
2019-02-15T23:07:00.926Z,87.71
2019-02-15T23:12:12.474Z,82.90
2019-02-15T23:17:17.579Z,85.00
2019-02-15T23:22:29.263Z,86.90
2019-02-15T23:27:34.694Z,83.43
2019-02-15T23:32:46.312Z,84.82
2019-02-15T23:37:58.011Z,76.10
2019-02-15T23:43:06.187Z,78.78
2019-02-15T23:48:17.554Z,81.00
2019-02-15T23:53:28.853Z,87.29
2019-02-15T23:58:32.531Z,81.00
